Wind Star — C6CA9 — position and weather

sailwx.info

Track history (hours):
 
Tides and Currents Weather Stations Pressure Air Temp Water Temp Dewpoint Dewpoint Depression Visibility Wind Speed Wind Dir Waves Ship Positions

Wind Star

Operator: Holland America Line

Last reported at 2018-Aug-13 19:17 UTC. Time now 2018-Aug-14 15:20 UTC.
Position N 37°45' E 025°49'.

Length 134 m; draft 4.1 m.

Type: Ship. MMSI: 309163000.

Date/timePositionNaut miles runAvg speedWind from/ knotsBaromVisibWave heightAir tempDewpointWater temp
2018-Aug-13 19:17N 37°45' E 025°49'3 9.0
2018-Aug-13 19:00N 37°44' E 025°46'4 8.8
2018-Aug-13 18:30N 37°42' E 025°41'4 8.5
2018-Aug-13 18:00N 37°40' E 025°36'4 8.3
2018-Aug-13 17:30N 37°37' E 025°32'4 7.7
2018-Aug-13 17:00N 37°36' E 025°27'4 7.7
2018-Aug-13 16:30N 37°34' E 025°23'4 7.5
2018-Aug-13 16:00N 37°32' E 025°19'3 6.9
2018-Aug-13 15:30N 37°29' E 025°17'2 4.4
2018-Aug-13 15:00N 37°27' E 025°19'0 0.2
2018-Aug-13 14:30N 37°27' E 025°19'0 0.0
2018-Aug-13 14:00N 37°27' E 025°19'0 0.0
2018-Aug-13 13:30N 37°27' E 025°19'0 0.0
2018-Aug-13 12:59N 37°27' E 025°19'0 0.0
2018-Aug-13 12:30N 37°27' E 025°19'0 0.1
2018-Aug-13 12:00N 37°27' E 025°19'0 0.0
2018-Aug-13 11:30N 37°27' E 025°19'0 0.0
2018-Aug-13 10:59N 37°27' E 025°19'0 0.1
2018-Aug-13 10:30N 37°27' E 025°19'0 0.3
2018-Aug-13 10:01N 37°27' E 025°19'0 0.1
2018-Aug-13 09:30N 37°27' E 025°19'0 0.1
2018-Aug-13 09:00N 37°27' E 025°19'0 0.1
2018-Aug-13 08:30N 37°27' E 025°19'0 0.1
2018-Aug-13 08:00N 37°27' E 025°19'0 0.1
2018-Aug-13 07:30N 37°27' E 025°19'0 0.1
2018-Aug-13 07:00N 37°27' E 025°19'0 0.1
2018-Aug-13 06:30N 37°27' E 025°19'0 0.0
2018-Aug-13 05:59N 37°27' E 025°19'0 0.1
2018-Aug-13 05:30N 37°27' E 025°19'0 0.1
2018-Aug-13 05:00N 37°27' E 025°19'1 1.4
2018-Aug-13 04:30N 37°27' E 025°18'3 7.0
2018-Aug-13 04:00N 37°27' E 025°14'4 8.8
2018-Aug-13 03:30N 37°26' E 025°09'5 8.4
2018-Aug-13 02:56N 37°24' E 025°04'3 7.6
2018-Aug-13 02:29N 37°22' E 024°60'4 8.0
2018-Aug-13 02:00N 37°20' E 024°56'4 8.5
2018-Aug-13 01:30N 37°19' E 024°51'96 4.2
2018-Aug-12 02:50N 37°28' E 022°51'42 4.1
2018-Aug-11 16:46N 37°34' E 023°42'2 8.7
2018-Aug-11 16:29N 37°37' E 023°42'4 8.6
2018-Aug-11 16:00N 37°41' E 023°41'4 8.3
2018-Aug-11 15:31N 37°45' E 023°39'4 8.2
2018-Aug-11 15:01N 37°49' E 023°37'4 7.6
2018-Aug-11 14:30N 37°52' E 023°36'4 7.2
2018-Aug-11 14:01N 37°56' E 023°37'1 2.6
2018-Aug-11 13:28N 37°56' E 023°38'0 0.0
2018-Aug-11 12:58N 37°56' E 023°38'0 0.0
2018-Aug-11 12:28N 37°56' E 023°38'0 0.0
2018-Aug-11 11:58N 37°56' E 023°38'0 0.0
2018-Aug-11 11:28N 37°56' E 023°38'0 0.0
2018-Aug-11 10:58N 37°56' E 023°38'0 0.0
2018-Aug-11 10:28N 37°56' E 023°38'0 0.0
2018-Aug-11 09:58N 37°56' E 023°38'0 0.0
2018-Aug-11 09:28N 37°56' E 023°38'0 0.0
2018-Aug-11 08:58N 37°56' E 023°38'0 0.0
2018-Aug-11 08:28N 37°56' E 023°38'0 0.0
2018-Aug-11 07:58N 37°56' E 023°38'0 0.0
2018-Aug-11 07:28N 37°56' E 023°38'0 0.0
2018-Aug-11 06:58N 37°56' E 023°38'0 0.0
2018-Aug-11 06:28N 37°56' E 023°38'0 0.0
2018-Aug-11 05:58N 37°56' E 023°38'0 0.0
2018-Aug-11 05:28N 37°56' E 023°38'0 0.0
2018-Aug-11 04:58N 37°56' E 023°38'0 0.0
2018-Aug-11 04:28N 37°56' E 023°38'0 0.0
2018-Aug-11 03:58N 37°56' E 023°38'0 0.0
2018-Aug-11 03:28N 37°56' E 023°38'0 0.0
2018-Aug-11 02:58N 37°56' E 023°38'0 0.0
2018-Aug-11 02:28N 37°56' E 023°38'0 0.0
2018-Aug-11 02:01N 37°56' E 023°38'1 2.7
2018-Aug-11 01:31N 37°56' E 023°37'2 3.3
2018-Aug-11 01:00N 37°54' E 023°37'2 4.4
2018-Aug-11 00:30N 37°52' E 023°38'2 4.3
2018-Aug-11 00:01N 37°50' E 023°39'2 4.2
2018-Aug-10 23:31N 37°49' E 023°40'2 4.1
2018-Aug-10 23:01N 37°47' E 023°42'2 4.1
2018-Aug-10 22:30N 37°45' E 023°43'2 3.7
2018-Aug-10 22:01N 37°43' E 023°44'9 2.7
2018-Aug-10 18:52N 37°35' E 023°47'  
2018-Aug-06 18:47N 37°45' E 025°48'3 9.5
2018-Aug-06 18:30N 37°44' E 025°45'5 9.2
2018-Aug-06 18:00N 37°42' E 025°40'4 8.9
2018-Aug-06 17:30N 37°39' E 025°35'4 8.7
2018-Aug-06 17:00N 37°37' E 025°31'4 8.3
2018-Aug-06 16:30N 37°35' E 025°26'4 7.8
2018-Aug-06 16:00N 37°33' E 025°22'4 7.7
2018-Aug-06 15:30N 37°31' E 025°18'3 6.3
2018-Aug-06 15:00N 37°28' E 025°19'1 1.1
2018-Aug-06 14:29N 37°27' E 025°19'0 0.0
2018-Aug-06 13:56N 37°27' E 025°19'0 0.1
2018-Aug-06 13:23N 37°27' E 025°19'0 0.0
2018-Aug-06 12:59N 37°27' E 025°19'0 0.0
2018-Aug-06 12:29N 37°27' E 025°19'0 0.0
2018-Aug-06 11:59N 37°27' E 025°19'0 0.0
2018-Aug-06 11:23N 37°27' E 025°19'0 0.0
2018-Aug-06 10:59N 37°27' E 025°19'0 0.1
2018-Aug-06 10:29N 37°27' E 025°19'0 0.1
2018-Aug-06 09:59N 37°27' E 025°19'0 0.0
2018-Aug-06 09:29N 37°27' E 025°19'0 0.1
2018-Aug-06 08:59N 37°27' E 025°19'0 0.0
2018-Aug-06 08:26N 37°27' E 025°19'0 0.1
2018-Aug-06 07:56N 37°27' E 025°19'0 0.1
2018-Aug-06 07:14N 37°27' E 025°19'0 0.2
2018-Aug-06 06:56N 37°27' E 025°19'0 0.1
2018-Aug-06 06:29N 37°27' E 025°19'0 0.0
2018-Aug-06 05:56N 37°27' E 025°19'0 0.1
2018-Aug-06 05:29N 37°27' E 025°19'0 0.0
2018-Aug-06 04:59N 37°27' E 025°19'0 0.0
2018-Aug-06 04:29N 37°27' E 025°19'0 0.1
2018-Aug-06 04:00N 37°27' E 025°19'2 4.3
2018-Aug-06 03:31N 37°27' E 025°17'4 7.3
2018-Aug-06 03:01N 37°27' E 025°12'4 8.0
2018-Aug-06 02:31N 37°26' E 025°07'4 7.6
2018-Aug-06 01:56N 37°23' E 025°03'3 6.6
2018-Aug-06 01:31N 37°22' E 024°60'5 9.8
2018-Aug-06 01:00N 37°19' E 024°54'5 9.7
2018-Aug-06 00:30N 37°18' E 024°48'94 4.3
2018-Aug-05 02:47N 37°27' E 022°50'33 6.1
2018-Aug-04 21:25N 37°10' E 023°25'13 7.4
2018-Aug-04 19:37N 37°17' E 023°39'1 7.8
2018-Aug-04 19:29N 37°18' E 023°40'11 7.7
2018-Aug-04 18:03N 37°28' E 023°42'1 8.1
2018-Aug-04 17:53N 37°30' E 023°42'4 7.2
2018-Aug-04 17:16N 37°34' E 023°43'2 7.3
2018-Aug-04 17:00N 37°36' E 023°43'3 6.9
2018-Aug-04 16:30N 37°40' E 023°42'4 8.0
2018-Aug-04 16:00N 37°43' E 023°40'4 7.7
2018-Aug-04 15:30N 37°47' E 023°38'4 7.8
2018-Aug-04 15:00N 37°50' E 023°36'4 8.1
2018-Aug-04 14:30N 37°55' E 023°36'2 4.7
2018-Aug-04 14:00N 37°56' E 023°38'0 0.0
2018-Aug-04 13:30N 37°56' E 023°38'0 0.0
2018-Aug-04 13:00N 37°56' E 023°38'0 0.0
2018-Aug-04 12:30N 37°56' E 023°38'0 0.0
2018-Aug-04 12:00N 37°56' E 023°38'0 0.0
2018-Aug-04 11:30N 37°56' E 023°38'0 0.0
2018-Aug-04 11:00N 37°56' E 023°38'0 0.0
2018-Aug-04 10:30N 37°56' E 023°38'0 0.0
2018-Aug-04 10:00N 37°56' E 023°38'0 0.0
2018-Aug-04 09:30N 37°56' E 023°38'0 0.0
2018-Aug-04 09:00N 37°56' E 023°38'0 0.0
2018-Aug-04 08:30N 37°56' E 023°38'1 2.8
2018-Aug-04 08:00N 37°56' E 023°36'3 5.2
2018-Aug-04 07:30N 37°58' E 023°33'0 0.0
2018-Aug-04 07:00N 37°58' E 023°33'0 0.0
2018-Aug-04 06:30N 37°58' E 023°33'0 0.0
2018-Aug-04 06:00N 37°58' E 023°33'0 0.0
2018-Aug-04 05:30N 37°58' E 023°33'0 0.0
2018-Aug-04 05:00N 37°58' E 023°33'0 0.0
2018-Aug-04 04:30N 37°58' E 023°33'0 0.0
2018-Aug-04 04:00N 37°58' E 023°33'0 0.0
2018-Aug-04 03:30N 37°58' E 023°33'0 0.0
2018-Aug-04 03:00N 37°58' E 023°33'0 0.0
2018-Aug-04 02:30N 37°58' E 023°33'0 0.0
2018-Aug-04 02:00N 37°58' E 023°33'0 0.0
2018-Aug-04 01:30N 37°58' E 023°33'0 0.0
2018-Aug-04 01:00N 37°58' E 023°33'0 0.0
2018-Aug-04 00:30N 37°58' E 023°33'0 0.0
2018-Aug-04 00:00N 37°58' E 023°33'0 0.0
2018-Aug-03 23:30N 37°58' E 023°33'0 0.0
2018-Aug-03 23:00N 37°58' E 023°33'0 0.0
2018-Aug-03 22:30N 37°58' E 023°33'0 0.0
2018-Aug-03 22:00N 37°58' E 023°33'0 0.0
2018-Aug-03 21:30N 37°58' E 023°33'0 0.0
2018-Aug-03 21:00N 37°58' E 023°33'0 0.0
2018-Aug-03 20:30N 37°58' E 023°33'0 0.0
2018-Aug-03 20:00N 37°58' E 023°33'0 0.0
2018-Aug-03 19:30N 37°58' E 023°33'  
Track history (hours):
 
Tides and Currents Weather Stations Pressure Air Temp Water Temp Dewpoint Dewpoint Depression Visibility Wind Speed Wind Dir Waves Ship Positions

Wind Star

Operator: Holland America Line

Last reported at 2018-Aug-13 19:17 UTC. Time now 2018-Aug-14 15:20 UTC.
Position N 37°45' E 025°49'.

Length 134 m; draft 4.1 m.

Type: Ship. MMSI: 309163000.

Date/timePositionNaut miles runAvg speedWind from/ knotsBaromVisibWave heightAir tempDewpointWater temp
2018-Aug-13 19:17N 37°45' E 025°49'3 9.0
2018-Aug-13 19:00N 37°44' E 025°46'4 8.8
2018-Aug-13 18:30N 37°42' E 025°41'4 8.5
2018-Aug-13 18:00N 37°40' E 025°36'4 8.3
2018-Aug-13 17:30N 37°37' E 025°32'4 7.7
2018-Aug-13 17:00N 37°36' E 025°27'4 7.7
2018-Aug-13 16:30N 37°34' E 025°23'4 7.5
2018-Aug-13 16:00N 37°32' E 025°19'3 6.9
2018-Aug-13 15:30N 37°29' E 025°17'2 4.4
2018-Aug-13 15:00N 37°27' E 025°19'0 0.2
2018-Aug-13 14:30N 37°27' E 025°19'0 0.0
2018-Aug-13 14:00N 37°27' E 025°19'0 0.0
2018-Aug-13 13:30N 37°27' E 025°19'0 0.0
2018-Aug-13 12:59N 37°27' E 025°19'0 0.0
2018-Aug-13 12:30N 37°27' E 025°19'0 0.1
2018-Aug-13 12:00N 37°27' E 025°19'0 0.0
2018-Aug-13 11:30N 37°27' E 025°19'0 0.0
2018-Aug-13 10:59N 37°27' E 025°19'0 0.1
2018-Aug-13 10:30N 37°27' E 025°19'0 0.3
2018-Aug-13 10:01N 37°27' E 025°19'0 0.1
2018-Aug-13 09:30N 37°27' E 025°19'0 0.1
2018-Aug-13 09:00N 37°27' E 025°19'0 0.1
2018-Aug-13 08:30N 37°27' E 025°19'0 0.1
2018-Aug-13 08:00N 37°27' E 025°19'0 0.1
2018-Aug-13 07:30N 37°27' E 025°19'0 0.1
2018-Aug-13 07:00N 37°27' E 025°19'0 0.1
2018-Aug-13 06:30N 37°27' E 025°19'0 0.0
2018-Aug-13 05:59N 37°27' E 025°19'0 0.1
2018-Aug-13 05:30N 37°27' E 025°19'0 0.1
2018-Aug-13 05:00N 37°27' E 025°19'1 1.4
2018-Aug-13 04:30N 37°27' E 025°18'3 7.0
2018-Aug-13 04:00N 37°27' E 025°14'4 8.8
2018-Aug-13 03:30N 37°26' E 025°09'5 8.4
2018-Aug-13 02:56N 37°24' E 025°04'3 7.6
2018-Aug-13 02:29N 37°22' E 024°60'4 8.0
2018-Aug-13 02:00N 37°20' E 024°56'4 8.5
2018-Aug-13 01:30N 37°19' E 024°51'96 4.2
2018-Aug-12 02:50N 37°28' E 022°51'42 4.1
2018-Aug-11 16:46N 37°34' E 023°42'2 8.7
2018-Aug-11 16:29N 37°37' E 023°42'4 8.6
2018-Aug-11 16:00N 37°41' E 023°41'4 8.3
2018-Aug-11 15:31N 37°45' E 023°39'4 8.2
2018-Aug-11 15:01N 37°49' E 023°37'4 7.6
2018-Aug-11 14:30N 37°52' E 023°36'4 7.2
2018-Aug-11 14:01N 37°56' E 023°37'1 2.6
2018-Aug-11 13:28N 37°56' E 023°38'0 0.0
2018-Aug-11 12:58N 37°56' E 023°38'0 0.0
2018-Aug-11 12:28N 37°56' E 023°38'0 0.0
2018-Aug-11 11:58N 37°56' E 023°38'0 0.0
2018-Aug-11 11:28N 37°56' E 023°38'0 0.0
2018-Aug-11 10:58N 37°56' E 023°38'0 0.0
2018-Aug-11 10:28N 37°56' E 023°38'0 0.0
2018-Aug-11 09:58N 37°56' E 023°38'0 0.0
2018-Aug-11 09:28N 37°56' E 023°38'0 0.0
2018-Aug-11 08:58N 37°56' E 023°38'0 0.0
2018-Aug-11 08:28N 37°56' E 023°38'0 0.0
2018-Aug-11 07:58N 37°56' E 023°38'0 0.0
2018-Aug-11 07:28N 37°56' E 023°38'0 0.0
2018-Aug-11 06:58N 37°56' E 023°38'0 0.0
2018-Aug-11 06:28N 37°56' E 023°38'0 0.0
2018-Aug-11 05:58N 37°56' E 023°38'0 0.0
2018-Aug-11 05:28N 37°56' E 023°38'0 0.0
2018-Aug-11 04:58N 37°56' E 023°38'0 0.0
2018-Aug-11 04:28N 37°56' E 023°38'0 0.0
2018-Aug-11 03:58N 37°56' E 023°38'0 0.0
2018-Aug-11 03:28N 37°56' E 023°38'0 0.0
2018-Aug-11 02:58N 37°56' E 023°38'0 0.0
2018-Aug-11 02:28N 37°56' E 023°38'0 0.0
2018-Aug-11 02:01N 37°56' E 023°38'1 2.7
2018-Aug-11 01:31N 37°56' E 023°37'2 3.3
2018-Aug-11 01:00N 37°54' E 023°37'2 4.4
2018-Aug-11 00:30N 37°52' E 023°38'2 4.3
2018-Aug-11 00:01N 37°50' E 023°39'2 4.2
2018-Aug-10 23:31N 37°49' E 023°40'2 4.1
2018-Aug-10 23:01N 37°47' E 023°42'2 4.1
2018-Aug-10 22:30N 37°45' E 023°43'2 3.7
2018-Aug-10 22:01N 37°43' E 023°44'9 2.7
2018-Aug-10 18:52N 37°35' E 023°47'  
2018-Aug-06 18:47N 37°45' E 025°48'3 9.5
2018-Aug-06 18:30N 37°44' E 025°45'5 9.2
2018-Aug-06 18:00N 37°42' E 025°40'4 8.9
2018-Aug-06 17:30N 37°39' E 025°35'4 8.7
2018-Aug-06 17:00N 37°37' E 025°31'4 8.3
2018-Aug-06 16:30N 37°35' E 025°26'4 7.8
2018-Aug-06 16:00N 37°33' E 025°22'4 7.7
2018-Aug-06 15:30N 37°31' E 025°18'3 6.3
2018-Aug-06 15:00N 37°28' E 025°19'1 1.1
2018-Aug-06 14:29N 37°27' E 025°19'0 0.0
2018-Aug-06 13:56N 37°27' E 025°19'0 0.1
2018-Aug-06 13:23N 37°27' E 025°19'0 0.0
2018-Aug-06 12:59N 37°27' E 025°19'0 0.0
2018-Aug-06 12:29N 37°27' E 025°19'0 0.0
2018-Aug-06 11:59N 37°27' E 025°19'0 0.0
2018-Aug-06 11:23N 37°27' E 025°19'0 0.0
2018-Aug-06 10:59N 37°27' E 025°19'0 0.1
2018-Aug-06 10:29N 37°27' E 025°19'0 0.1
2018-Aug-06 09:59N 37°27' E 025°19'0 0.0
2018-Aug-06 09:29N 37°27' E 025°19'0 0.1
2018-Aug-06 08:59N 37°27' E 025°19'0 0.0
2018-Aug-06 08:26N 37°27' E 025°19'0 0.1
2018-Aug-06 07:56N 37°27' E 025°19'0 0.1
2018-Aug-06 07:14N 37°27' E 025°19'0 0.2
2018-Aug-06 06:56N 37°27' E 025°19'0 0.1
2018-Aug-06 06:29N 37°27' E 025°19'0 0.0
2018-Aug-06 05:56N 37°27' E 025°19'0 0.1
2018-Aug-06 05:29N 37°27' E 025°19'0 0.0
2018-Aug-06 04:59N 37°27' E 025°19'0 0.0
2018-Aug-06 04:29N 37°27' E 025°19'0 0.1
2018-Aug-06 04:00N 37°27' E 025°19'2 4.3
2018-Aug-06 03:31N 37°27' E 025°17'4 7.3
2018-Aug-06 03:01N 37°27' E 025°12'4 8.0
2018-Aug-06 02:31N 37°26' E 025°07'4 7.6
2018-Aug-06 01:56N 37°23' E 025°03'3 6.6
2018-Aug-06 01:31N 37°22' E 024°60'5 9.8
2018-Aug-06 01:00N 37°19' E 024°54'5 9.7
2018-Aug-06 00:30N 37°18' E 024°48'94 4.3
2018-Aug-05 02:47N 37°27' E 022°50'33 6.1
2018-Aug-04 21:25N 37°10' E 023°25'13 7.4
2018-Aug-04 19:37N 37°17' E 023°39'1 7.8
2018-Aug-04 19:29N 37°18' E 023°40'11 7.7
2018-Aug-04 18:03N 37°28' E 023°42'1 8.1
2018-Aug-04 17:53N 37°30' E 023°42'4 7.2
2018-Aug-04 17:16N 37°34' E 023°43'2 7.3
2018-Aug-04 17:00N 37°36' E 023°43'3 6.9
2018-Aug-04 16:30N 37°40' E 023°42'4 8.0
2018-Aug-04 16:00N 37°43' E 023°40'4 7.7
2018-Aug-04 15:30N 37°47' E 023°38'4 7.8
2018-Aug-04 15:00N 37°50' E 023°36'4 8.1
2018-Aug-04 14:30N 37°55' E 023°36'2 4.7
2018-Aug-04 14:00N 37°56' E 023°38'0 0.0
2018-Aug-04 13:30N 37°56' E 023°38'0 0.0
2018-Aug-04 13:00N 37°56' E 023°38'0 0.0
2018-Aug-04 12:30N 37°56' E 023°38'0 0.0
2018-Aug-04 12:00N 37°56' E 023°38'0 0.0
2018-Aug-04 11:30N 37°56' E 023°38'0 0.0
2018-Aug-04 11:00N 37°56' E 023°38'0 0.0
2018-Aug-04 10:30N 37°56' E 023°38'0 0.0
2018-Aug-04 10:00N 37°56' E 023°38'0 0.0
2018-Aug-04 09:30N 37°56' E 023°38'0 0.0
2018-Aug-04 09:00N 37°56' E 023°38'0 0.0
2018-Aug-04 08:30N 37°56' E 023°38'1 2.8
2018-Aug-04 08:00N 37°56' E 023°36'3 5.2
2018-Aug-04 07:30N 37°58' E 023°33'0 0.0
2018-Aug-04 07:00N 37°58' E 023°33'0 0.0
2018-Aug-04 06:30N 37°58' E 023°33'0 0.0
2018-Aug-04 06:00N 37°58' E 023°33'0 0.0
2018-Aug-04 05:30N 37°58' E 023°33'0 0.0
2018-Aug-04 05:00N 37°58' E 023°33'0 0.0
2018-Aug-04 04:30N 37°58' E 023°33'0 0.0
2018-Aug-04 04:00N 37°58' E 023°33'0 0.0
2018-Aug-04 03:30N 37°58' E 023°33'0 0.0
2018-Aug-04 03:00N 37°58' E 023°33'0 0.0
2018-Aug-04 02:30N 37°58' E 023°33'0 0.0
2018-Aug-04 02:00N 37°58' E 023°33'0 0.0
2018-Aug-04 01:30N 37°58' E 023°33'0 0.0
2018-Aug-04 01:00N 37°58' E 023°33'0 0.0
2018-Aug-04 00:30N 37°58' E 023°33'0 0.0
2018-Aug-04 00:00N 37°58' E 023°33'0 0.0
2018-Aug-03 23:30N 37°58' E 023°33'0 0.0
2018-Aug-03 23:00N 37°58' E 023°33'0 0.0
2018-Aug-03 22:30N 37°58' E 023°33'0 0.0
2018-Aug-03 22:00N 37°58' E 023°33'0 0.0
2018-Aug-03 21:30N 37°58' E 023°33'0 0.0
2018-Aug-03 21:00N 37°58' E 023°33'0 0.0
2018-Aug-03 20:30N 37°58' E 023°33'0 0.0
2018-Aug-03 20:00N 37°58' E 023°33'0 0.0
2018-Aug-03 19:30N 37°58' E 023°33'  

Dump ship's entire track history